createdAt,value
2024-01-06T00:02:44.265Z,100.00
2024-01-06T00:07:47.397Z,100.00
2024-01-06T00:12:51.059Z,100.00
2024-01-06T00:17:55.813Z,100.00
2024-01-06T00:23:00.117Z,100.00
2024-01-06T00:28:03.600Z,100.00
2024-01-06T00:33:08.326Z,100.00
2024-01-06T00:38:11.654Z,100.00
2024-01-06T00:43:14.933Z,100.00
2024-01-06T00:48:19.718Z,100.00
2024-01-06T00:53:24.147Z,100.00
2024-01-06T00:58:27.449Z,100.00
2024-01-06T01:03:32.164Z,100.00
2024-01-06T01:08:35.390Z,100.00
2024-01-06T01:13:39.009Z,100.00
2024-01-06T01:18:43.964Z,100.00
2024-01-06T01:23:47.526Z,100.00
2024-01-06T01:28:50.731Z,100.00
2024-01-06T01:33:55.547Z,100.00
2024-01-06T01:38:59.015Z,100.00
2024-01-06T01:44:02.471Z,100.00
2024-01-06T01:49:07.531Z,100.00
2024-01-06T01:54:10.906Z,100.00
2024-01-06T01:59:15.164Z,100.00
2024-01-06T02:04:19.755Z,100.00
2024-01-06T02:09:24.346Z,100.00
2024-01-06T02:14:27.558Z,100.00
2024-01-06T02:19:32.283Z,100.00
2024-01-06T02:24:37.263Z,100.00
2024-01-06T02:29:40.656Z,100.00
2024-01-06T02:34:44.258Z,100.00
2024-01-06T02:39:49.036Z,100.00
2024-01-06T02:44:52.339Z,100.00
2024-01-06T02:49:55.898Z,100.00
2024-01-06T02:55:02.061Z,100.00
2024-01-06T03:00:05.928Z,100.00
2024-01-06T03:05:09.980Z,100.00
2024-01-06T03:10:15.127Z,100.00
2024-01-06T03:15:18.730Z,100.00
2024-01-06T03:20:22.112Z,100.00
2024-01-06T03:25:26.831Z,100.00
2024-01-06T03:30:30.140Z,100.00
2024-01-06T03:35:33.480Z,100.00
2024-01-06T03:40:38.033Z,100.00
2024-01-06T03:45:41.387Z,100.00
2024-01-06T03:50:44.971Z,100.00
2024-01-06T03:55:49.690Z,100.00
2024-01-06T04:00:53.054Z,100.00
2024-01-06T04:05:56.455Z,100.00
2024-01-06T04:11:01.217Z,100.00
2024-01-06T04:16:04.980Z,100.00
2024-01-06T04:21:09.989Z,100.00
2024-01-06T04:26:14.854Z,100.00
2024-01-06T04:31:18.236Z,100.00
2024-01-06T04:36:21.569Z,100.00
2024-01-06T04:41:26.342Z,100.00
2024-01-06T04:46:31.725Z,100.00
2024-01-06T04:51:35.109Z,100.00
2024-01-06T04:56:39.784Z,100.00
2024-01-06T05:01:43.154Z,100.00
2024-01-06T05:06:46.684Z,100.00
2024-01-06T05:11:52.138Z,100.00
2024-01-06T05:16:55.388Z,100.00
2024-01-06T05:21:58.747Z,100.00
2024-01-06T05:27:03.438Z,100.00
2024-01-06T05:32:07.145Z,100.00
2024-01-06T05:37:10.508Z,100.00
2024-01-06T05:42:16.001Z,100.00
2024-01-06T05:47:19.404Z,100.00
2024-01-06T05:52:22.741Z,100.00
2024-01-06T05:57:27.500Z,100.00
2024-01-06T06:02:31.393Z,100.00
2024-01-06T06:07:39.898Z,100.00
2024-01-06T06:12:44.568Z,100.00
2024-01-06T06:17:48.124Z,100.00
2024-01-06T06:22:51.381Z,100.00
2024-01-06T06:27:56.132Z,100.00
2024-01-06T06:32:59.527Z,100.00
2024-01-06T06:38:03.430Z,100.00
2024-01-06T06:43:09.399Z,100.00
2024-01-06T06:48:12.927Z,100.00
2024-01-06T06:53:16.264Z,100.00
2024-01-06T06:58:20.786Z,100.00
2024-01-06T07:03:24.263Z,100.00
2024-01-06T07:08:27.664Z,100.00
2024-01-06T07:13:32.324Z,100.00
2024-01-06T07:18:36.342Z,100.00
2024-01-06T07:23:39.619Z,100.00
2024-01-06T07:28:44.295Z,100.00
2024-01-06T07:33:47.749Z,100.00
2024-01-06T07:38:51.078Z,100.00
2024-01-06T07:43:55.769Z,100.00
2024-01-06T07:48:59.246Z,100.00
2024-01-06T07:54:02.710Z,100.00
2024-01-06T07:59:07.457Z,100.00
2024-01-06T08:04:10.898Z,100.00
2024-01-06T08:09:14.237Z,100.00
2024-01-06T08:14:19.026Z,100.00
2024-01-06T08:19:22.678Z,100.00
2024-01-06T08:24:26.213Z,100.00
2024-01-06T08:29:30.848Z,100.00
2024-01-06T08:34:34.727Z,100.00
2024-01-06T08:39:38.201Z,100.00
2024-01-06T08:44:44.639Z,100.00
2024-01-06T08:49:47.999Z,100.00
2024-01-06T08:54:51.978Z,100.00
2024-01-06T08:59:56.835Z,100.00
2024-01-06T09:05:00.325Z,100.00
2024-01-06T09:10:03.696Z,100.00
2024-01-06T09:15:09.204Z,100.00
2024-01-06T09:20:13.322Z,100.00
2024-01-06T09:25:16.942Z,100.00
2024-01-06T09:30:22.021Z,100.00
2024-01-06T09:35:25.558Z,100.00
2024-01-06T09:40:28.999Z,100.00
2024-01-06T09:45:35.334Z,100.00
2024-01-06T09:50:38.695Z,100.00
2024-01-06T09:55:42.200Z,100.00
2024-01-06T10:00:46.991Z,100.00
2024-01-06T10:05:50.763Z,100.00
2024-01-06T10:10:54.135Z,100.00
2024-01-06T10:15:59.059Z,100.00
2024-01-06T10:21:02.629Z,100.00
2024-01-06T10:26:06.327Z,100.00
2024-01-06T10:31:11.780Z,100.00
2024-01-06T10:36:17.085Z,100.00
2024-01-06T10:41:21.807Z,100.00
2024-01-06T10:46:26.575Z,100.00
2024-01-06T10:51:32.138Z,100.00
2024-01-06T10:56:40.971Z,100.00
2024-01-06T11:01:46.985Z,100.00
2024-01-06T11:06:50.854Z,100.00
2024-01-06T11:11:54.433Z,99.99
2024-01-06T11:16:59.114Z,98.09
2024-01-06T11:22:20.869Z,96.42
2024-01-06T11:27:27.847Z,96.56
2024-01-06T11:32:36.408Z,93.92
2024-01-06T11:37:53.614Z,94.87
2024-01-06T11:43:01.248Z,93.01
2024-01-06T11:48:07.975Z,93.17
2024-01-06T11:53:12.133Z,93.26
2024-01-06T11:58:15.512Z,92.05
2024-01-06T12:03:20.275Z,90.88
2024-01-06T12:08:23.694Z,89.57
2024-01-06T12:13:28.071Z,89.09
2024-01-06T12:18:34.803Z,88.55
2024-01-06T12:23:38.183Z,88.61
2024-01-06T12:28:41.439Z,89.76
2024-01-06T12:33:46.048Z,94.84
2024-01-06T12:38:49.285Z,92.35
2024-01-06T12:43:52.550Z,92.02
2024-01-06T12:48:57.447Z,89.79
2024-01-06T12:54:00.797Z,89.75
2024-01-06T12:59:04.138Z,91.05
2024-01-06T13:04:10.833Z,90.96
2024-01-06T13:09:17.787Z,89.47
2024-01-06T13:14:21.345Z,89.99
2024-01-06T13:19:27.375Z,87.82
2024-01-06T13:24:30.690Z,88.21
2024-01-06T13:29:34.570Z,90.26
2024-01-06T13:34:39.546Z,92.25
2024-01-06T13:39:42.907Z,93.91
2024-01-06T13:44:46.525Z,96.51
2024-01-06T13:49:51.460Z,97.41
2024-01-06T13:54:55.003Z,97.43
2024-01-06T13:59:58.544Z,97.80
2024-01-06T14:05:03.271Z,96.91
2024-01-06T14:10:07.239Z,99.57
2024-01-06T14:15:11.641Z,100.00
2024-01-06T14:20:18.524Z,100.00
2024-01-06T14:25:21.840Z,100.00
2024-01-06T14:30:25.084Z,99.87
2024-01-06T14:35:29.919Z,100.00
2024-01-06T14:40:33.212Z,100.00
2024-01-06T14:45:36.527Z,100.00
2024-01-06T14:50:41.495Z,100.00
2024-01-06T14:55:44.896Z,100.00
2024-01-06T15:00:48.184Z,100.00
2024-01-06T15:05:52.945Z,100.00
2024-01-06T15:10:57.857Z,100.00
2024-01-06T15:16:01.191Z,100.00
2024-01-06T15:21:06.708Z,100.00
2024-01-06T15:26:10.026Z,100.00
2024-01-06T15:31:13.395Z,100.00
2024-01-06T15:36:18.298Z,100.00
2024-01-06T15:41:21.722Z,100.00
2024-01-06T15:46:25.131Z,100.00
2024-01-06T15:51:29.800Z,100.00
2024-01-06T15:56:33.531Z,100.00
2024-01-06T16:01:36.924Z,100.00
2024-01-06T16:06:42.425Z,100.00
2024-01-06T16:11:45.781Z,100.00
2024-01-06T16:16:49.098Z,100.00
2024-01-06T16:21:59.512Z,100.00
2024-01-06T16:27:11.550Z,100.00
2024-01-06T16:32:14.851Z,100.00
2024-01-06T16:37:19.598Z,100.00
2024-01-06T16:42:22.914Z,100.00
2024-01-06T16:47:26.487Z,100.00
2024-01-06T16:52:31.309Z,100.00
2024-01-06T16:57:34.784Z,100.00
2024-01-06T17:02:39.720Z,100.00
2024-01-06T17:07:48.294Z,100.00
2024-01-06T17:12:51.951Z,100.00
2024-01-06T17:17:57.256Z,100.00
2024-01-06T17:23:02.393Z,100.00
2024-01-06T17:28:06.084Z,100.00
2024-01-06T17:33:09.478Z,100.00
2024-01-06T17:38:14.139Z,100.00
2024-01-06T17:43:18.167Z,100.00
2024-01-06T17:48:21.557Z,100.00
2024-01-06T17:53:26.454Z,100.00
2024-01-06T17:58:30.025Z,100.00
2024-01-06T18:03:33.364Z,100.00
2024-01-06T18:08:38.456Z,100.00
2024-01-06T18:13:41.741Z,100.00
2024-01-06T18:18:45.239Z,100.00
2024-01-06T18:23:50.157Z,100.00
2024-01-06T18:28:53.970Z,100.00
2024-01-06T18:33:57.266Z,100.00
2024-01-06T18:39:01.879Z,100.00
2024-01-06T18:44:10.900Z,100.00
2024-01-06T18:49:14.650Z,100.00
2024-01-06T18:54:23.211Z,100.00
2024-01-06T18:59:34.609Z,100.00
2024-01-06T19:04:38.103Z,100.00
2024-01-06T19:09:43.152Z,100.00
2024-01-06T19:14:47.115Z,100.00
2024-01-06T19:19:50.436Z,100.00
2024-01-06T19:24:56.059Z,100.00
2024-01-06T19:29:59.325Z,100.00
2024-01-06T19:35:02.739Z,100.00
2024-01-06T19:40:09.219Z,100.00
2024-01-06T19:45:12.858Z,100.00
2024-01-06T19:50:16.114Z,100.00
2024-01-06T19:55:20.808Z,100.00
2024-01-06T20:00:26.537Z,100.00
2024-01-06T20:05:29.756Z,100.00
2024-01-06T20:10:34.623Z,100.00
2024-01-06T20:15:38.306Z,100.00
2024-01-06T20:20:42.127Z,100.00
2024-01-06T20:25:47.236Z,100.00
2024-01-06T20:30:52.793Z,100.00
2024-01-06T20:35:57.923Z,100.00
2024-01-06T20:41:05.126Z,100.00
2024-01-06T20:46:10.899Z,100.00
2024-01-06T20:51:15.801Z,100.00
2024-01-06T20:56:21.808Z,100.00
2024-01-06T21:01:25.898Z,100.00
2024-01-06T21:06:29.345Z,100.00
2024-01-06T21:11:34.776Z,100.00
2024-01-06T21:16:41.733Z,100.00
2024-01-06T21:21:46.730Z,100.00
2024-01-06T21:26:54.144Z,100.00
2024-01-06T21:31:59.280Z,100.00
2024-01-06T21:37:04.527Z,100.00
2024-01-06T21:42:09.315Z,100.00
2024-01-06T21:47:12.742Z,100.00
2024-01-06T21:52:16.011Z,100.00
2024-01-06T21:57:20.717Z,100.00
2024-01-06T22:02:23.997Z,100.00
2024-01-06T22:07:27.417Z,100.00
2024-01-06T22:12:32.063Z,100.00
2024-01-06T22:17:35.540Z,100.00
2024-01-06T22:22:38.781Z,100.00
2024-01-06T22:27:43.356Z,100.00
2024-01-06T22:32:48.475Z,100.00
2024-01-06T22:37:51.749Z,100.00
2024-01-06T22:42:56.269Z,100.00
2024-01-06T22:47:59.858Z,100.00
2024-01-06T22:53:03.202Z,100.00
2024-01-06T22:58:07.977Z,100.00
2024-01-06T23:03:11.284Z,100.00
2024-01-06T23:08:14.679Z,100.00
2024-01-06T23:13:20.305Z,100.00
2024-01-06T23:18:24.256Z,100.00
2024-01-06T23:23:27.720Z,100.00
2024-01-06T23:28:32.469Z,100.00
2024-01-06T23:33:35.937Z,100.00
2024-01-06T23:38:39.584Z,100.00
2024-01-06T23:43:44.402Z,100.00
2024-01-06T23:48:47.774Z,100.00
2024-01-06T23:53:53.908Z,100.00
2024-01-06T23:58:58.964Z,100.00
